Hlavní strana
METAR-TAF:

METAR-TAF

Letiště :

Letiště Split

Split, Chorvatsko

zeměpisná šířka: 43-32N, zeměpisná délka: 016-18E, výška: 19 m

Aktuální stav počasí

Zpráva byla vytvořena před 23 minutami, v 08:00 UTC
Severoseverovýchodní vítr 10 kt
Teplota 10°C
Vlhkost vzduchu 46%
Tlak 1013 hPa
Viditelnost 10 km a více
Žádná oblačnost pod 1500 m, nevyskytují se cumulonimby.

METAR: LDSP 110800Z 03010KT CAVOK 10/M01 Q1013 NOSIG

Čas: 09:23 (08:23 UTC)

Předpověď počasí

Zpráva byla vytvořena před 2 hodinami a 58 minutami, v 05:25 UTC
Předpověď platná od 11 v 06 UTC do 12 v 06 UTC
Severoseverovýchodní vítr 12 kt
Viditelnost 10 km a více
Žádná oblačnost pod 1500 m, nevyskytují se cumulonimby.
Pravděpodobnost 30% :
Dočasný
od 11 v 06 UTC do 11 v 09 UTC
Severoseverovýchodní vítr 15 kt s nárazy do 25 kt
Změna
od 11 v 10 UTC do 11 v 12 UTC
Severovýchodní vítr 6 kt

TAF: LDSP 110525Z 1106/1206 03012KT CAVOK TX14/1112Z TN05/1201Z PROB30 TEMPO 1106/1109 03015G25KT BECMG 1110/1112 05006KT

Stav a předpovědi počasí z více než 4 000 letišť (zprávy METAR a TAF).

Červené a žluté tečky na mapě představují dostupné meteorologické stanice.

Když kurzor umístíte na tečku, zobrazí se název stanice.

Pak kliknutím zobrazíte stav a předpověď počasí.

Chcete-li změnit mapu, kliknutím na zelené tlačítko se znaménkem +mapu přiblížíte, kliknutím na zelené tlačítko se znaménkem – mapu oddálíte a kliknutím na zelené šipky přejdete na sousední mapy.


METAR-TAF: